Time;durP1;ratioP1;P1;durP2;ratioP2;P2;SDS_P1;SDS_P2;PMS_P1;PMS_P2;Temp;Humidity;BMP_temperature;BMP_pressure;BME280_temperature;BME280_humidity;BME280_pressure;Samples;Min_cycle;Max_cycle;Signal;HPM_P1;HPM_P2
2021/05/11 00:02:46;;;;;;;0.35;0.10;;;17.10;63.90;;;;;;6063810;29;20040;-79
2021/05/11 00:05:48;;;;;;;0.10;0.10;;;17.10;63.80;;;;;;6076870;29;20524;-79
2021/05/11 00:08:49;;;;;;;0.40;0.28;;;17.00;63.70;;;;;;6092230;29;20452;-78
2021/05/11 00:11:50;;;;;;;2.10;0.22;;;17.10;63.90;;;;;;6098873;29;20079;-79
2021/05/11 00:14:51;;;;;;;1.33;0.30;;;17.00;64.10;;;;;;6072908;29;20092;-79
2021/05/11 00:17:52;;;;;;;0.50;0.35;;;17.00;64.20;;;;;;6074586;29;20041;-79
2021/05/11 00:20:53;;;;;;;2.00;0.15;;;17.00;64.40;;;;;;6061736;29;20048;-79
2021/05/11 00:23:54;;;;;;;0.40;0.30;;;16.90;64.60;;;;;;6082133;29;20435;-79
2021/05/11 00:26:55;;;;;;;1.08;0.17;;;16.90;64.90;;;;;;6082552;29;20104;-78
2021/05/11 00:30:00;;;;;;;0.10;0.10;;;16.80;65.00;;;;;;6082943;29;20028;-79
2021/05/11 00:33:01;;;;;;;0.25;0.20;;;16.90;65.20;;;;;;6081724;29;20048;-78
2021/05/11 00:36:02;;;;;;;0.57;0.40;;;16.80;65.40;;;;;;6078210;29;20045;-78
2021/05/11 00:39:04;;;;;;;0.22;0.20;;;16.60;65.90;;;;;;6079261;29;20063;-81
2021/05/11 00:42:05;;;;;;;0.40;0.20;;;16.40;66.60;;;;;;6063392;29;20044;-79
2021/05/11 00:45:07;;;;;;;0.22;0.10;;;16.20;67.10;;;;;;6063323;29;20029;-79
2021/05/11 00:48:08;;;;;;;0.40;0.20;;;16.10;67.90;;;;;;6077568;29;20101;-78
2021/05/11 00:51:10;;;;;;;0.20;0.20;;;16.00;68.10;;;;;;6063618;29;20095;-78
2021/05/11 00:54:11;;;;;;;0.00;0.00;;;15.90;68.30;;;;;;6078148;29;20132;-78
2021/05/11 00:57:13;;;;;;;0.00;0.00;;;15.90;68.70;;;;;;6065924;29;20033;-79
2021/05/11 01:00:14;;;;;;;0.00;0.00;;;15.90;68.50;;;;;;6077688;29;20037;-79
2021/05/11 01:03:16;;;;;;;0.00;0.00;;;15.90;68.20;;;;;;6077587;29;20044;-79
2021/05/11 01:06:18;;;;;;;0.52;0.28;;;15.90;68.00;;;;;;6077879;29;20032;-79
2021/05/11 01:09:19;;;;;;;0.43;0.20;;;15.90;68.00;;;;;;6062045;29;20057;-78
2021/05/11 01:12:21;;;;;;;0.10;0.10;;;16.00;67.90;;;;;;6077879;29;20065;-78
2021/05/11 01:15:22;;;;;;;0.10;0.10;;;16.00;67.60;;;;;;6061776;29;20037;-79
2021/05/11 01:18:29;;;;;;;0.10;0.10;;;16.00;67.80;;;;;;6058794;29;20073;-79
2021/05/11 01:24:47;;;;;;;0.40;0.22;;;15.90;67.90;;;;;;6062826;29;20465;-79
2021/05/11 01:53:51;;;;;;;1.05;0.68;;;15.70;68.60;;;;;;6083847;29;20032;-77
2021/05/11 02:23:17;;;;;;;0.70;0.60;;;15.80;67.50;;;;;;6102409;29;20044;-79
2021/05/11 02:26:19;;;;;;;1.35;0.20;;;15.80;68.00;;;;;;6102574;29;20036;-79
2021/05/11 02:29:20;;;;;;;0.10;0.10;;;15.80;67.60;;;;;;6102033;29;20039;-79
2021/05/11 02:32:21;;;;;;;0.70;0.20;;;15.80;67.10;;;;;;6101702;29;20032;-78
2021/05/11 02:35:22;;;;;;;0.20;0.10;;;15.80;66.70;;;;;;6099694;29;20071;-79
2021/05/11 02:38:23;;;;;;;0.40;0.15;;;15.70;66.80;;;;;;6105631;29;20039;-78
2021/05/11 02:41:24;;;;;;;0.55;0.10;;;15.60;66.70;;;;;;6076661;29;20064;-78
2021/05/11 02:44:25;;;;;;;0.10;0.10;;;15.50;66.60;;;;;;6089382;29;20028;-78
2021/05/11 02:47:26;;;;;;;0.05;0.05;;;15.40;66.50;;;;;;6087372;29;20452;-78
2021/05/11 02:50:31;;;;;;;0.08;0.08;;;15.40;66.70;;;;;;6100899;29;20024;-79
2021/05/11 02:53:32;;;;;;;0.20;0.10;;;15.30;66.60;;;;;;6088798;29;20044;-78
2021/05/11 02:56:33;;;;;;;0.10;0.10;;;15.30;66.70;;;;;;6102142;29;20309;-77
2021/05/11 02:59:35;;;;;;;0.10;0.10;;;15.20;66.80;;;;;;6105192;29;20115;-78
2021/05/11 03:02:37;;;;;;;0.10;0.10;;;15.10;67.10;;;;;;6101374;29;20043;-78
2021/05/11 03:05:38;;;;;;;0.40;0.30;;;15.10;67.60;;;;;;6089164;29;20087;-79
2021/05/11 03:08:42;;;;;;;0.00;0.00;;;15.00;67.90;;;;;;6092389;29;20032;-78
2021/05/11 03:11:43;;;;;;;0.10;0.00;;;14.90;68.10;;;;;;6084104;29;20040;-78
2021/05/11 03:14:46;;;;;;;0.20;0.00;;;14.80;68.50;;;;;;6086714;29;20070;-78
2021/05/11 03:17:47;;;;;;;0.10;0.10;;;14.80;68.70;;;;;;6089815;29;20464;-78
2021/05/11 03:20:48;;;;;;;0.00;0.00;;;14.60;69.00;;;;;;6097117;29;20047;-78
2021/05/11 03:23:49;;;;;;;0.17;0.13;;;14.50;69.00;;;;;;6109202;29;20020;-80
2021/05/11 03:26:51;;;;;;;0.38;0.17;;;14.50;68.80;;;;;;6091951;29;20143;-79
2021/05/11 03:29:52;;;;;;;0.88;0.17;;;14.50;69.10;;;;;;6103515;29;20055;-78
2021/05/11 03:32:53;;;;;;;0.00;0.00;;;14.40;69.30;;;;;;6102301;29;20039;-78
2021/05/11 03:35:54;;;;;;;0.00;0.00;;;14.30;69.90;;;;;;6083430;29;20059;-79
2021/05/11 03:38:56;;;;;;;0.90;0.20;;;14.20;70.10;;;;;;6104774;29;20059;-78
2021/05/11 03:42:01;;;;;;;0.10;0.10;;;14.20;69.90;;;;;;6098488;29;20028;-80
2021/05/11 03:45:04;;;;;;;0.17;0.00;;;14.10;69.70;;;;;;6096397;29;20041;-78
2021/05/11 03:48:06;;;;;;;0.68;0.10;;;14.10;69.30;;;;;;6102156;29;20024;-79
2021/05/11 03:51:08;;;;;;;0.00;0.00;;;14.00;68.70;;;;;;6088112;29;20028;-78
2021/05/11 03:54:11;;;;;;;8.90;0.73;;;14.00;68.40;;;;;;6106487;29;20088;-78
2021/05/11 03:57:12;;;;;;;0.10;0.08;;;13.90;67.80;;;;;;6098684;29;20044;-78
2021/05/11 04:00:14;;;;;;;0.00;0.00;;;13.80;68.10;;;;;;6087947;29;20400;-78
2021/05/11 04:03:15;;;;;;;0.65;0.13;;;13.60;68.90;;;;;;6087394;29;20040;-78
2021/05/11 04:06:16;;;;;;;0.00;0.00;;;13.50;69.70;;;;;;6106669;29;20340;-78
2021/05/11 04:18:57;;;;;;;0.45;0.17;;;13.30;72.00;;;;;;6104594;29;20127;-78
2021/05/11 04:21:58;;;;;;;0.20;0.20;;;13.30;72.40;;;;;;6106366;29;20035;-78
2021/05/11 04:24:59;;;;;;;0.80;0.35;;;13.30;72.90;;;;;;6101315;29;20039;-78
2021/05/11 04:28:00;;;;;;;0.30;0.00;;;13.30;73.30;;;;;;6077013;29;20032;-78
2021/05/11 04:31:01;;;;;;;0.00;0.00;;;13.30;73.50;;;;;;6100983;29;20488;-78
2021/05/11 04:34:02;;;;;;;0.22;0.22;;;13.30;73.20;;;;;;6100134;29;20453;-79
2021/05/11 04:37:04;;;;;;;0.80;0.10;;;13.30;73.40;;;;;;6097593;29;20515;-77
2021/05/11 04:40:05;;;;;;;0.22;0.10;;;13.20;73.10;;;;;;6089157;29;20393;-77
2021/05/11 04:43:06;;;;;;;0.38;0.05;;;13.20;72.40;;;;;;6099205;29;20037;-77
2021/05/11 04:49:20;;;;;;;0.00;0.00;;;13.10;72.30;;;;;;6119851;29;20024;-78
2021/05/11 04:52:21;;;;;;;0.20;0.03;;;13.10;73.20;;;;;;6123516;29;20051;-78
2021/05/11 04:55:23;;;;;;;0.22;0.03;;;13.20;72.40;;;;;;6111155;29;20096;-78
2021/05/11 04:58:34;;;;;;;0.00;0.00;;;13.20;72.30;;;;;;6106951;29;20028;-78
2021/05/11 05:01:35;;;;;;;0.40;0.10;;;13.20;72.20;;;;;;6079823;29;20032;-77
2021/05/11 05:04:58;;;;;;;2.90;0.32;;;13.30;72.20;;;;;;6104830;29;20034;-78
2021/05/11 05:07:59;;;;;;;0.25;0.00;;;13.30;72.10;;;;;;6104564;29;20040;-78
2021/05/11 05:11:00;;;;;;;1.15;0.10;;;13.30;72.10;;;;;;6100828;29;20044;-78
2021/05/11 05:14:01;;;;;;;0.00;0.00;;;13.30;72.80;;;;;;6104327;29;20040;-78
2021/05/11 05:17:08;;;;;;;0.90;0.22;;;13.30;71.80;;;;;;6105893;29;20047;-79
2021/05/11 05:20:12;;;;;;;23.58;1.00;;;13.40;71.80;;;;;;6101924;29;20075;-77
2021/05/11 05:23:19;;;;;;;0.10;0.10;;;13.40;71.80;;;;;;6092413;29;20131;-77
2021/05/11 05:26:22;;;;;;;0.22;0.22;;;13.50;71.90;;;;;;6079002;29;20348;-77
2021/05/11 05:29:25;;;;;;;0.80;0.10;;;13.50;71.90;;;;;;6102494;29;20023;-78
2021/05/11 05:32:27;;;;;;;2.25;0.35;;;13.60;71.90;;;;;;6106930;29;20032;-78
2021/05/11 05:35:29;;;;;;;0.00;0.00;;;13.60;71.90;;;;;;6085386;29;20052;-80
2021/05/11 05:38:32;;;;;;;0.65;0.40;;;13.70;72.00;;;;;;6072516;29;20429;-80
2021/05/11 05:41:49;;;;;;;1.63;0.22;;;13.70;72.00;;;;;;6041258;29;20056;-79
2021/05/11 05:44:50;;;;;;;2.67;0.20;;;13.70;72.10;;;;;;6054128;29;20456;-79
2021/05/11 05:47:51;;;;;;;0.77;0.20;;;13.70;72.10;;;;;;6054529;29;20036;-78
2021/05/11 05:50:59;;;;;;;4.85;0.40;;;13.80;72.30;;;;;;6072149;29;20060;-78
2021/05/11 05:54:00;;;;;;;0.22;0.20;;;13.80;72.30;;;;;;6061235;29;20124;-79
2021/05/11 05:57:02;;;;;;;0.38;0.30;;;13.90;72.20;;;;;;6044555;29;20038;-80
2021/05/11 06:00:04;;;;;;;1.42;0.43;;;13.90;71.90;;;;;;6066006;29;20101;-79
2021/05/11 06:03:31;;;;;;;0.08;0.08;;;13.90;71.90;;;;;;6071046;29;20045;-78
2021/05/11 06:06:32;;;;;;;3.10;0.23;;;13.90;71.80;;;;;;6075232;29;20037;-81
2021/05/11 06:09:33;;;;;;;0.57;0.40;;;13.80;71.50;;;;;;6058951;29;20044;-80
2021/05/11 06:12:48;;;;;;;0.80;0.40;;;13.80;71.40;;;;;;6054779;29;20044;-79
2021/05/11 06:19:08;;;;;;;2.03;1.08;;;13.80;71.30;;;;;;6052912;29;20033;-79
2021/05/11 06:22:10;;;;;;;0.68;0.40;;;13.90;71.40;;;;;;6073172;29;20041;-77
2021/05/11 06:25:11;;;;;;;0.90;0.68;;;13.90;71.30;;;;;;6070359;29;20554;-79
2021/05/11 06:28:13;;;;;;;2.40;0.65;;;14.00;71.30;;;;;;6059762;29;20058;-79
2021/05/11 06:31:14;;;;;;;1.70;1.00;;;14.00;71.20;;;;;;6065223;29;20052;-80
2021/05/11 06:34:15;;;;;;;2.33;0.50;;;14.00;71.10;;;;;;6072833;29;20180;-79
2021/05/11 06:37:16;;;;;;;0.77;0.40;;;14.10;71.20;;;;;;6109604;29;20074;-78
2021/05/11 06:40:17;;;;;;;1.92;0.70;;;14.10;71.10;;;;;;6113316;29;20050;-80
2021/05/11 06:43:26;;;;;;;3.10;0.28;;;14.20;71.20;;;;;;6088211;29;20534;-79
2021/05/11 06:53:14;;;;;;;4.55;0.50;;;14.30;71.00;;;;;;6108352;29;20043;-80
2021/05/11 06:56:15;;;;;;;1.48;0.35;;;14.30;71.00;;;;;;6103944;29;20047;-79
2021/05/11 06:59:16;;;;;;;1.95;0.93;;;14.30;70.80;;;;;;6071591;29;20050;-79
2021/05/11 07:02:17;;;;;;;0.65;0.30;;;14.30;70.50;;;;;;6105590;29;20038;-78
2021/05/11 07:05:19;;;;;;;5.28;0.80;;;14.20;70.50;;;;;;6103464;29;20040;-80
2021/05/11 07:09:06;;;;;;;2.92;1.10;;;14.20;70.80;;;;;;6103865;29;20027;-79
2021/05/11 07:14:45;;;;;;;3.03;0.90;;;14.30;71.00;;;;;;6120673;29;20038;-79
2021/05/11 07:17:46;;;;;;;0.95;0.65;;;14.40;71.00;;;;;;6118358;29;20028;-80
2021/05/11 07:20:49;;;;;;;0.95;0.77;;;14.50;70.90;;;;;;6112404;29;20088;-80
2021/05/11 07:23:50;;;;;;;3.78;0.77;;;14.50;70.50;;;;;;6105018;29;20047;-78
2021/05/11 07:30:27;;;;;;;1.55;1.13;;;14.70;70.30;;;;;;6094103;29;20047;-79
2021/05/11 07:33:33;;;;;;;3.15;1.08;;;14.90;70.00;;;;;;6118941;29;20407;-79
2021/05/11 07:36:34;;;;;;;3.08;1.30;;;15.00;69.80;;;;;;6113746;29;20032;-79
2021/05/11 07:39:36;;;;;;;1.85;0.50;;;15.10;69.30;;;;;;6104333;29;20023;-80
2021/05/11 07:42:37;;;;;;;2.72;0.65;;;15.20;69.80;;;;;;6108253;29;20563;-76
2021/05/11 08:18:25;;;;;;;1.70;1.10;;;16.40;64.80;;;;;;6108463;29;20048;-78
2021/05/11 08:28:11;;;;;;;1.25;0.75;;;16.70;64.00;;;;;;6103091;29;20396;-78
2021/05/11 08:31:12;;;;;;;1.30;0.70;;;16.80;64.00;;;;;;6104202;29;20043;-78
2021/05/11 08:34:14;;;;;;;2.45;0.80;;;16.80;63.40;;;;;;6105433;29;20043;-78
2021/05/11 08:37:18;;;;;;;0.73;0.60;;;16.70;63.00;;;;;;6107949;29;20036;-78
2021/05/11 08:40:20;;;;;;;0.70;0.65;;;16.70;63.20;;;;;;6092716;29;20039;-77
2021/05/11 08:43:30;;;;;;;1.13;0.82;;;16.60;63.10;;;;;;6110422;29;20420;-78
2021/05/11 08:46:31;;;;;;;2.03;0.82;;;16.60;63.40;;;;;;6108532;29;20024;-78
2021/05/11 08:49:32;;;;;;;1.10;0.70;;;16.50;63.40;;;;;;6107025;29;20131;-79
2021/05/11 09:09:20;;;;;;;2.58;1.20;;;16.30;62.90;;;;;;6104032;29;20032;-78
2021/05/11 09:29:02;;;;;;;2.65;1.45;;;16.80;62.10;;;;;;6094527;29;20028;-78
2021/05/11 09:32:25;;;;;;;0.70;0.68;;;16.80;62.30;;;;;;6078874;29;20047;-79
2021/05/11 10:39:49;;;;;;;3.10;1.20;;;17.50;63.30;;;;;;6041424;29;20059;-78
2021/05/11 10:49:17;;;;;;;1.95;1.08;;;18.00;62.80;;;;;;6021523;29;20039;-81
2021/05/11 10:52:26;;;;;;;0.60;0.50;;;18.00;62.30;;;;;;5994703;29;20058;-78
2021/05/11 10:55:29;;;;;;;1.58;0.55;;;18.20;62.20;;;;;;5974235;29;20041;-78
2021/05/11 10:59:09;;;;;;;1.30;0.68;;;18.20;61.90;;;;;;5984680;29;20026;-77
2021/05/11 11:02:26;;;;;;;1.92;0.77;;;18.20;61.70;;;;;;5994451;29;20369;-78
2021/05/11 11:05:39;;;;;;;1.95;0.77;;;18.30;61.60;;;;;;5980873;29;20070;-77
2021/05/11 11:08:42;;;;;;;0.88;0.68;;;18.40;61.50;;;;;;5974868;29;20027;-79
2021/05/11 11:11:45;;;;;;;1.58;0.80;;;18.60;61.10;;;;;;6031630;29;20348;-79
2021/05/11 11:14:46;;;;;;;2.70;1.10;;;18.60;60.90;;;;;;6085809;29;20108;-78
2021/05/11 11:17:54;;;;;;;1.80;0.67;;;18.70;60.30;;;;;;6096667;29;20052;-78
2021/05/11 11:24:37;;;;;;;1.35;0.30;;;18.60;60.00;;;;;;6102778;29;20036;-79
2021/05/11 11:27:39;;;;;;;3.65;0.63;;;18.60;60.20;;;;;;6098057;29;20029;-80
2021/05/11 11:30:40;;;;;;;28.42;1.83;;;18.70;60.00;;;;;;6085188;29;20078;-79
2021/05/11 11:33:42;;;;;;;0.55;0.32;;;18.80;59.70;;;;;;6085752;29;20051;-78
2021/05/11 11:37:00;;;;;;;1.55;0.63;;;19.00;59.40;;;;;;6083086;29;20348;-79
2021/05/11 11:40:09;;;;;;;0.38;0.30;;;19.10;58.90;;;;;;6084438;29;20321;-79
2021/05/11 11:43:10;;;;;;;;;;;19.30;58.50;;;;;;6103225;29;20070;-78
2021/05/11 11:46:11;;;;;;;14.23;1.45;;;19.50;58.20;;;;;;6107596;29;19911;-78
2021/05/11 11:49:17;;;;;;;34.03;2.00;;;19.80;57.70;;;;;;6093180;29;20131;-81
2021/05/11 11:58:31;;;;;;;0.85;0.70;;;20.40;56.70;;;;;;6095471;29;20032;-79
2021/05/11 12:01:33;;;;;;;1.70;0.80;;;20.60;56.30;;;;;;6102405;29;20486;-78
2021/05/11 12:04:34;;;;;;;4.50;1.80;;;20.80;55.70;;;;;;6068781;29;20423;-78
2021/05/11 12:07:43;;;;;;;0.90;0.57;;;21.10;55.50;;;;;;6083548;29;20359;-79
2021/05/11 12:10:47;;;;;;;0.70;0.50;;;21.40;54.80;;;;;;6099097;29;20119;-80
2021/05/11 12:13:52;;;;;;;1.45;0.50;;;21.70;54.10;;;;;;6088553;29;20032;-79
2021/05/11 12:16:54;;;;;;;2.45;0.90;;;21.90;52.50;;;;;;6097604;29;20115;-77
2021/05/11 12:19:58;;;;;;;0.63;0.50;;;22.20;52.30;;;;;;6101912;29;20047;-79
2021/05/11 12:23:18;;;;;;;0.32;0.32;;;22.40;52.10;;;;;;6101844;29;20115;-79
2021/05/11 12:26:20;;;;;;;0.98;0.30;;;22.80;51.60;;;;;;6089478;29;20035;-79
2021/05/11 12:29:21;;;;;;;0.80;0.40;;;23.10;50.30;;;;;;6103802;29;20096;-79
2021/05/11 12:32:22;;;;;;;3.58;0.40;;;23.50;49.80;;;;;;6110035;29;20336;-79
2021/05/11 12:35:29;;;;;;;0.40;0.30;;;24.00;48.60;;;;;;6111034;29;20107;-78
2021/05/11 12:38:32;;;;;;;0.45;0.40;;;24.40;47.60;;;;;;6106054;29;20107;-78
2021/05/11 12:41:33;;;;;;;0.57;0.50;;;24.90;45.40;;;;;;6100910;29;20028;-78
2021/05/11 12:44:34;;;;;;;0.57;0.30;;;25.50;44.60;;;;;;6097513;29;20351;-78
2021/05/11 12:47:41;;;;;;;0.38;0.38;;;26.00;43.10;;;;;;6089913;29;20078;-78
2021/05/11 12:50:44;;;;;;;0.82;0.73;;;26.10;42.50;;;;;;6097941;29;20031;-79
2021/05/11 12:53:47;;;;;;;1.65;0.95;;;26.20;41.90;;;;;;6125326;29;20050;-79
2021/05/11 13:00:11;;;;;;;1.35;0.50;;;26.40;40.40;;;;;;6107237;29;20115;-78
2021/05/11 13:03:34;;;;;;;1.08;0.40;;;26.00;40.60;;;;;;6096859;29;20044;-78
2021/05/11 13:20:24;;;;;;;0.68;0.40;;;27.70;38.00;;;;;;6059983;29;20127;-78
2021/05/11 13:26:46;;;;;;;1.15;0.52;;;29.30;33.30;;;;;;6042515;29;20036;-79
2021/05/11 13:36:07;;;;;;;0.63;0.22;;;27.20;35.60;;;;;;6062196;29;20093;-79
2021/05/11 13:39:10;;;;;;;0.80;0.40;;;26.30;36.90;;;;;;6047123;29;20032;-80
2021/05/11 13:42:12;;;;;;;0.98;0.50;;;25.50;38.00;;;;;;6043339;29;20048;-77
2021/05/11 13:45:14;;;;;;;0.43;0.30;;;25.30;39.10;;;;;;6057529;29;20067;-78
2021/05/11 13:48:31;;;;;;;1.73;0.40;;;26.70;37.40;;;;;;6067397;29;20036;-78
2021/05/11 13:51:32;;;;;;;0.47;0.38;;;27.60;36.00;;;;;;6116927;29;20077;-79
2021/05/11 13:54:33;;;;;;;1.10;0.70;;;29.10;34.20;;;;;;6105219;29;20036;-77
2021/05/11 14:04:32;;;;;;;0.60;0.40;;;32.60;29.40;;;;;;6086522;29;20029;-77
2021/05/11 14:07:33;;;;;;;1.17;0.50;;;32.70;28.90;;;;;;6078379;29;20029;-77
2021/05/11 14:10:36;;;;;;;0.82;0.50;;;32.80;28.70;;;;;;6071447;29;20035;-77
2021/05/11 14:13:37;;;;;;;7.07;0.40;;;33.20;28.10;;;;;;6080519;29;20111;-79
2021/05/11 14:16:39;;;;;;;0.40;0.32;;;33.80;27.50;;;;;;6083110;29;20036;-77
2021/05/11 14:19:40;;;;;;;2.15;0.50;;;34.60;26.50;;;;;;6066086;29;20025;-78
2021/05/11 14:22:41;;;;;;;1.90;0.40;;;34.70;25.80;;;;;;6079020;29;20459;-78
2021/05/11 14:25:43;;;;;;;0.50;0.22;;;34.10;25.80;;;;;;6082988;29;20196;-77
2021/05/11 14:28:44;;;;;;;0.75;0.50;;;32.70;27.00;;;;;;6063697;29;20492;-77
2021/05/11 14:31:46;;;;;;;0.75;0.45;;;31.10;28.30;;;;;;6082094;29;20474;-77
2021/05/11 14:34:47;;;;;;;3.40;0.30;;;29.70;29.40;;;;;;6099886;29;20100;-77
2021/05/11 14:37:48;;;;;;;0.75;0.60;;;28.70;30.70;;;;;;6104935;29;20076;-78
2021/05/11 14:40:49;;;;;;;1.00;0.50;;;28.00;31.50;;;;;;6102353;29;20032;-77
2021/05/11 14:43:50;;;;;;;1.10;0.32;;;27.50;32.30;;;;;;6086416;29;20115;-77
2021/05/11 14:46:52;;;;;;;0.35;0.28;;;27.10;32.40;;;;;;6103546;29;20043;-76
2021/05/11 14:49:53;;;;;;;1.50;0.43;;;26.80;32.70;;;;;;6104842;29;20086;-77
2021/05/11 14:52:55;;;;;;;1.63;0.52;;;26.40;33.70;;;;;;6103374;29;20363;-78
2021/05/11 14:55:57;;;;;;;2.15;0.88;;;26.20;33.60;;;;;;6100589;29;20467;-77
2021/05/11 14:58:58;;;;;;;1.10;0.30;;;25.90;33.80;;;;;;6103470;29;20377;-77
2021/05/11 15:01:59;;;;;;;2.78;0.40;;;25.70;34.10;;;;;;6083253;29;20127;-77
2021/05/11 15:05:00;;;;;;;0.68;0.47;;;25.40;34.30;;;;;;6072795;29;20929;-77
2021/05/11 15:08:01;;;;;;;0.75;0.35;;;25.00;34.50;;;;;;6066120;29;20091;-78
2021/05/11 15:11:02;;;;;;;0.40;0.40;;;24.70;34.80;;;;;;6090055;29;20055;-78
2021/05/11 15:14:04;;;;;;;0.95;0.38;;;24.50;35.10;;;;;;6087621;29;20134;-76
2021/05/11 15:20:25;;;;;;;2.88;0.40;;;23.60;36.40;;;;;;6098912;29;20037;-77
2021/05/11 15:23:26;;;;;;;0.25;0.13;;;22.90;38.50;;;;;;6104532;29;20451;-79
2021/05/11 15:26:30;;;;;;;2.17;0.38;;;22.20;41.30;;;;;;6087601;29;20056;-77
2021/05/11 15:29:31;;;;;;;1.23;0.20;;;21.30;44.50;;;;;;6089340;29;20040;-76
2021/05/11 15:32:50;;;;;;;0.35;0.22;;;20.40;46.80;;;;;;6089511;29;20361;-77
2021/05/11 15:35:52;;;;;;;;;;;19.40;49.50;;;;;;6106108;29;20055;-77
2021/05/11 15:38:53;;;;;;;0.25;0.15;;;18.70;52.00;;;;;;6091112;29;19989;-76
2021/05/11 15:41:54;;;;;;;1.45;0.13;;;18.10;54.90;;;;;;6102366;29;20363;-77
2021/05/11 15:44:55;;;;;;;1.58;0.40;;;17.60;56.90;;;;;;6101581;29;20028;-79
2021/05/11 15:47:56;;;;;;;1.05;0.30;;;17.20;58.80;;;;;;6100431;29;20036;-78
2021/05/11 15:50:58;;;;;;;1.40;0.28;;;16.80;60.20;;;;;;6095685;29;20126;-78
2021/05/11 15:53:59;;;;;;;0.85;0.20;;;16.50;62.20;;;;;;6105298;29;20035;-77
2021/05/11 15:57:00;;;;;;;5.45;0.30;;;16.30;63.40;;;;;;6095449;29;20059;-76
2021/05/11 16:00:02;;;;;;;0.45;0.20;;;16.10;64.20;;;;;;6073981;29;20475;-77
2021/05/11 16:03:04;;;;;;;4.03;0.40;;;15.90;64.00;;;;;;6077160;29;20475;-78
2021/05/11 16:06:13;;;;;;;0.82;0.28;;;15.70;64.80;;;;;;6107909;29;20028;-81
2021/05/11 16:09:16;;;;;;;0.28;0.20;;;15.60;65.00;;;;;;6105847;29;20038;-82
2021/05/11 16:12:17;;;;;;;2.97;0.20;;;15.60;65.20;;;;;;6109892;29;20043;-81
2021/05/11 16:15:18;;;;;;;0.32;0.17;;;15.40;65.40;;;;;;6100080;29;20048;-81
2021/05/11 16:18:20;;;;;;;0.13;0.13;;;15.40;65.30;;;;;;6104570;29;20040;-80
2021/05/11 16:21:21;;;;;;;0.30;0.17;;;15.20;65.10;;;;;;6104123;29;20134;-81
2021/05/11 16:24:22;;;;;;;0.40;0.32;;;15.30;65.30;;;;;;6083958;29;20036;-80
2021/05/11 16:27:25;;;;;;;0.93;0.60;;;15.20;64.90;;;;;;6093167;29;20024;-80
2021/05/11 16:30:26;;;;;;;0.35;0.30;;;15.20;64.50;;;;;;6093785;29;20036;-79
2021/05/11 16:33:28;;;;;;;0.73;0.40;;;15.30;64.70;;;;;;6094800;29;20375;-80
2021/05/11 16:36:29;;;;;;;3.20;0.35;;;15.30;64.00;;;;;;6104412;29;20028;-80
2021/05/11 16:39:30;;;;;;;0.88;0.30;;;15.40;63.60;;;;;;6123686;29;20032;-80
2021/05/11 16:42:31;;;;;;;0.32;0.30;;;15.40;63.00;;;;;;6094227;29;20056;-80
2021/05/11 16:45:33;;;;;;;0.77;0.30;;;15.50;61.90;;;;;;6120450;29;20058;-80
2021/05/11 16:48:38;;;;;;;0.70;0.30;;;15.60;62.30;;;;;;6105309;29;20031;-79
2021/05/11 16:51:39;;;;;;;3.28;0.60;;;15.60;63.40;;;;;;6121434;29;20411;-82
2021/05/11 16:54:40;;;;;;;0.57;0.35;;;15.70;64.10;;;;;;6086443;29;20115;-83
2021/05/11 16:57:41;;;;;;;2.08;1.17;;;15.70;64.30;;;;;;6111125;29;20456;-81
2021/05/11 17:00:43;;;;;;;1.40;0.60;;;15.80;64.80;;;;;;6123078;29;20028;-81
2021/05/11 17:03:44;;;;;;;1.85;0.68;;;15.90;64.90;;;;;;6101395;29;20044;-81
2021/05/11 17:06:47;;;;;;;0.80;0.50;;;15.90;65.00;;;;;;6095614;29;20024;-81
2021/05/11 17:09:48;;;;;;;2.70;0.68;;;15.90;65.20;;;;;;6088403;29;20024;-82
2021/05/11 17:12:50;;;;;;;1.58;0.47;;;16.00;65.30;;;;;;6104709;29;20059;-80
2021/05/11 17:15:53;;;;;;;3.20;0.65;;;16.10;65.60;;;;;;6104963;29;20035;-79
2021/05/11 17:18:54;;;;;;;0.88;0.40;;;16.10;65.50;;;;;;6105996;29;20123;-81
2021/05/11 17:21:56;;;;;;;0.30;0.30;;;16.10;65.30;;;;;;6095995;29;20064;-81
2021/05/11 17:24:57;;;;;;;1.02;0.35;;;16.20;65.00;;;;;;6093802;29;20060;-81
2021/05/11 17:28:00;;;;;;;3.88;1.98;;;16.20;64.90;;;;;;6103018;29;20039;-80
2021/05/11 17:31:06;;;;;;;1.75;0.40;;;16.10;65.60;;;;;;6109549;29;20032;-80
2021/05/11 17:34:07;;;;;;;0.80;0.30;;;16.20;65.60;;;;;;6088826;29;20087;-80
2021/05/11 17:37:09;;;;;;;0.70;0.40;;;16.20;64.60;;;;;;6106596;29;20032;-79
2021/05/11 17:40:16;;;;;;;0.35;0.35;;;16.30;64.40;;;;;;6106911;29;20039;-80
2021/05/11 17:43:18;;;;;;;1.02;0.60;;;16.30;64.10;;;;;;6107018;29;20028;-79
2021/05/11 17:46:19;;;;;;;0.82;0.60;;;16.40;64.00;;;;;;6105157;29;20052;-81
2021/05/11 17:49:20;;;;;;;0.80;0.30;;;16.40;63.70;;;;;;6087554;29;20083;-80
2021/05/11 17:52:22;;;;;;;1.92;0.77;;;16.40;63.50;;;;;;6102521;29;20024;-81
2021/05/11 17:55:23;;;;;;;0.57;0.45;;;16.40;63.40;;;;;;6103108;29;20405;-80
2021/05/11 17:58:25;;;;;;;3.90;0.60;;;16.40;63.40;;;;;;6106137;29;20028;-81
2021/05/11 18:01:26;;;;;;;0.75;0.55;;;16.40;63.10;;;;;;6089324;29;20059;-80
2021/05/11 18:04:28;;;;;;;2.67;0.30;;;16.50;63.00;;;;;;6086283;29;20119;-81
2021/05/11 18:07:29;;;;;;;1.08;0.60;;;16.60;62.90;;;;;;6096086;29;20028;-81
2021/05/11 18:10:31;;;;;;;2.22;0.90;;;16.60;62.80;;;;;;6101373;29;20032;-81
2021/05/11 18:13:34;;;;;;;2.10;0.50;;;16.70;62.70;;;;;;6089342;29;20040;-80
2021/05/11 18:16:36;;;;;;;1.02;0.45;;;16.70;62.20;;;;;;6088653;29;20135;-82
2021/05/11 18:19:37;;;;;;;1.38;0.35;;;16.70;61.60;;;;;;6100721;29;20068;-80
2021/05/11 18:22:39;;;;;;;4.78;0.60;;;16.70;61.00;;;;;;6091098;29;20028;-80
2021/05/11 18:25:40;;;;;;;1.55;0.68;;;16.70;60.90;;;;;;6089764;29;20032;-82
2021/05/11 18:28:41;;;;;;;1.38;0.50;;;16.60;61.00;;;;;;6103250;29;20119;-83
2021/05/11 18:31:44;;;;;;;1.13;0.60;;;16.60;60.80;;;;;;6104124;29;20490;-81
2021/05/11 18:34:45;;;;;;;1.67;0.50;;;16.60;60.80;;;;;;6103747;29;20052;-80
2021/05/11 18:37:56;;;;;;;0.85;0.50;;;16.60;60.90;;;;;;6105195;29;20035;-77
2021/05/11 18:40:58;;;;;;;1.05;0.70;;;16.70;60.90;;;;;;6092841;29;20354;-80
2021/05/11 18:44:00;;;;;;;1.25;0.77;;;16.70;61.10;;;;;;6104993;29;20032;-79
2021/05/11 18:47:02;;;;;;;2.45;0.98;;;16.70;61.00;;;;;;6099590;29;20040;-83
2021/05/11 18:50:03;;;;;;;1.88;0.95;;;16.70;60.80;;;;;;6100162;29;20028;-81
2021/05/11 18:53:07;;;;;;;1.65;0.50;;;16.70;60.50;;;;;;6096490;29;20028;-83
2021/05/11 18:56:08;;;;;;;0.57;0.52;;;16.70;60.60;;;;;;6114167;29;20032;-81
2021/05/11 18:59:09;;;;;;;2.53;1.02;;;16.60;60.80;;;;;;6103439;29;20028;-82
2021/05/11 19:02:11;;;;;;;3.38;0.90;;;16.60;60.80;;;;;;6098369;29;20039;-81
2021/05/11 19:05:13;;;;;;;2.10;0.82;;;16.60;60.90;;;;;;6111693;29;20028;-83
2021/05/11 19:08:14;;;;;;;1.50;0.80;;;16.50;61.00;;;;;;6101229;29;20024;-83
2021/05/11 19:11:16;;;;;;;1.13;0.57;;;16.50;61.10;;;;;;6087396;29;20024;-84
2021/05/11 19:14:19;;;;;;;0.73;0.57;;;16.40;61.20;;;;;;6101816;29;20036;-82
2021/05/11 19:17:21;;;;;;;3.90;0.90;;;16.40;61.30;;;;;;6097777;29;20068;-82
2021/05/11 19:20:22;;;;;;;2.85;0.68;;;16.30;61.40;;;;;;6096520;29;20042;-83
2021/05/11 19:23:23;;;;;;;2.88;0.80;;;16.30;61.40;;;;;;6086781;29;20032;-83
2021/05/11 19:26:25;;;;;;;2.22;0.75;;;16.20;61.40;;;;;;6079406;29;20027;-84
2021/05/11 19:29:26;;;;;;;3.63;0.80;;;16.10;61.50;;;;;;6095728;29;20046;-82
2021/05/11 19:32:27;;;;;;;0.82;0.70;;;16.10;61.60;;;;;;6092467;29;20059;-82
2021/05/11 19:35:28;;;;;;;2.17;0.65;;;16.10;61.80;;;;;;6110713;29;20044;-84
2021/05/11 19:38:32;;;;;;;1.90;0.70;;;16.00;62.70;;;;;;6109045;29;20490;-83
2021/05/11 19:41:33;;;;;;;1.15;0.60;;;16.00;61.90;;;;;;6088262;29;20147;-83
2021/05/11 19:44:37;;;;;;;5.00;1.70;;;16.00;61.90;;;;;;6088488;29;20103;-81
2021/05/11 19:47:40;;;;;;;2.35;1.45;;;16.00;62.10;;;;;;6068425;29;20043;-83
2021/05/11 19:50:41;;;;;;;2.05;0.90;;;16.00;62.20;;;;;;6100923;29;20038;-84
2021/05/11 19:53:43;;;;;;;1.55;0.75;;;16.00;62.20;;;;;;6088131;29;20079;-82
2021/05/11 19:56:44;;;;;;;2.33;0.90;;;16.00;62.90;;;;;;6104072;29;20439;-84
2021/05/11 19:59:46;;;;;;;2.28;1.13;;;16.00;61.70;;;;;;6094091;29;20039;-82
2021/05/11 20:02:47;;;;;;;2.70;1.00;;;16.10;61.60;;;;;;6090926;29;20277;-83
2021/05/11 20:05:49;;;;;;;3.67;0.70;;;15.90;61.80;;;;;;6107477;29;20021;-83
2021/05/11 20:08:51;;;;;;;2.65;0.80;;;15.90;61.90;;;;;;6086922;29;20036;-82
2021/05/11 20:11:53;;;;;;;1.00;0.57;;;15.90;62.10;;;;;;6090479;29;20039;-83
2021/05/11 20:14:54;;;;;;;13.43;5.95;;;16.10;62.20;;;;;;6086874;29;20035;-82
2021/05/11 20:17:57;;;;;;;2.00;0.90;;;15.90;62.20;;;;;;6092879;29;20044;-84
2021/05/11 20:20:58;;;;;;;1.77;0.85;;;16.00;62.30;;;;;;6088801;29;20075;-83
2021/05/11 20:23:59;;;;;;;1.80;0.80;;;16.00;62.10;;;;;;6084438;29;20067;-84
2021/05/11 20:27:01;;;;;;;2.28;0.98;;;16.00;62.10;;;;;;6097388;29;20571;-83
2021/05/11 20:30:04;;;;;;;1.20;0.88;;;15.90;62.20;;;;;;6086614;29;20039;-83